createdAt,value
2019-06-10T00:00:51.367Z,21.05
2019-06-10T00:01:51.550Z,21.05
2019-06-10T00:02:51.343Z,21.05
2019-06-10T00:03:51.898Z,21.09
2019-06-10T00:04:51.323Z,21.00
2019-06-10T00:05:51.830Z,21.07
2019-06-10T00:06:51.303Z,21.07
2019-06-10T00:07:51.665Z,21.02
2019-06-10T00:08:51.282Z,20.97
2019-06-10T00:09:51.543Z,21.00
2019-06-10T00:10:51.295Z,21.03
2019-06-10T00:11:51.621Z,21.02
2019-06-10T00:12:52.431Z,21.05
2019-06-10T00:13:51.223Z,21.05
2019-06-10T00:14:51.216Z,21.07
2019-06-10T00:15:51.623Z,21.09
2019-06-10T00:16:51.191Z,21.02
2019-06-10T00:18:06.758Z,21.00
2019-06-10T00:18:52.179Z,21.02
2019-06-10T00:19:51.294Z,20.99
2019-06-10T00:20:51.393Z,21.00
2019-06-10T00:21:51.137Z,20.93
2019-06-10T00:22:51.597Z,21.06
2019-06-10T00:23:51.842Z,21.03
2019-06-10T00:24:52.217Z,20.95
2019-06-10T00:25:51.624Z,20.97
2019-06-10T00:26:51.338Z,21.00
2019-06-10T00:27:51.305Z,20.96
2019-06-10T00:28:51.438Z,20.93
2019-06-10T00:29:51.383Z,20.90
2019-06-10T00:30:51.576Z,20.90
2019-06-10T00:31:51.074Z,20.87
2019-06-10T00:32:51.524Z,20.85
2019-06-10T00:33:51.926Z,20.85
2019-06-10T00:34:51.022Z,20.81
2019-06-10T00:35:51.462Z,20.78
2019-06-10T00:36:51.150Z,20.80
2019-06-10T00:37:51.298Z,20.80
2019-06-10T00:38:51.763Z,20.82
2019-06-10T00:39:51.302Z,20.81
2019-06-10T00:40:51.453Z,20.93
2019-06-10T00:41:52.074Z,20.85
2019-06-10T00:42:50.916Z,20.81
2019-06-10T00:43:51.732Z,20.81
2019-06-10T00:44:50.967Z,20.80
2019-06-10T00:45:51.493Z,20.81
2019-06-10T00:46:51.644Z,20.80
2019-06-10T00:48:04.468Z,20.80
2019-06-10T00:48:51.833Z,20.77
2019-06-10T00:49:51.443Z,20.82
2019-06-10T00:50:51.763Z,20.81
2019-06-10T00:51:51.116Z,20.80
2019-06-10T00:52:51.706Z,20.85
2019-06-10T00:53:51.396Z,20.78
2019-06-10T00:54:51.935Z,20.74
2019-06-10T00:55:51.550Z,20.77
2019-06-10T00:56:51.674Z,20.72
2019-06-10T00:57:51.032Z,20.74
2019-06-10T00:58:51.354Z,20.74
2019-06-10T00:59:50.925Z,20.78
2019-06-10T01:00:51.664Z,20.78
2019-06-10T01:01:50.980Z,20.66
2019-06-10T01:02:51.788Z,20.75
2019-06-10T01:03:50.955Z,20.69
2019-06-10T01:04:51.410Z,20.66
2019-06-10T01:05:50.997Z,20.72
2019-06-10T01:06:51.389Z,20.72
2019-06-10T01:07:50.931Z,20.72
2019-06-10T01:08:51.280Z,20.67
2019-06-10T01:09:51.736Z,20.67
2019-06-10T01:10:52.322Z,20.66
2019-06-10T01:11:51.843Z,20.69
2019-06-10T01:12:51.352Z,20.70
2019-06-10T01:13:50.923Z,20.69
2019-06-10T01:14:51.709Z,20.69
2019-06-10T01:15:51.151Z,20.72
2019-06-10T01:16:50.757Z,20.69
2019-06-10T01:17:51.136Z,20.70
2019-06-10T01:18:53.433Z,20.66
2019-06-10T01:19:50.876Z,20.69
2019-06-10T01:20:51.761Z,20.72
2019-06-10T01:21:51.220Z,20.72
2019-06-10T01:22:51.606Z,20.65
2019-06-10T01:23:51.059Z,20.70
2019-06-10T01:24:51.089Z,20.66
2019-06-10T01:25:51.047Z,20.69
2019-06-10T01:26:50.625Z,20.63
2019-06-10T01:27:51.537Z,20.66
2019-06-10T01:28:51.579Z,20.69
2019-06-10T01:29:51.140Z,20.72
2019-06-10T01:30:51.729Z,20.63
2019-06-10T01:31:51.244Z,20.59
2019-06-10T01:32:50.706Z,20.59
2019-06-10T01:33:51.378Z,20.66
2019-06-10T01:34:50.898Z,20.58
2019-06-10T01:35:51.476Z,20.55
2019-06-10T01:36:50.937Z,20.62
2019-06-10T01:37:52.005Z,20.58
2019-06-10T01:38:51.131Z,20.56
2019-06-10T01:39:51.497Z,20.55
2019-06-10T01:40:50.989Z,20.52
2019-06-10T01:41:51.204Z,20.48
2019-06-10T01:42:50.696Z,20.60
2019-06-10T01:43:51.238Z,20.59
2019-06-10T01:44:50.663Z,20.52
2019-06-10T01:45:51.149Z,20.55
2019-06-10T01:46:51.620Z,20.55
2019-06-10T01:47:51.121Z,20.51
2019-06-10T01:48:52.055Z,20.51
2019-06-10T01:49:51.708Z,20.52
2019-06-10T01:50:51.222Z,20.52
2019-06-10T01:51:51.489Z,20.47
2019-06-10T01:52:51.550Z,20.47
2019-06-10T01:53:51.332Z,20.55
2019-06-10T01:54:51.493Z,20.48
2019-06-10T01:55:52.011Z,20.55
2019-06-10T01:56:51.035Z,20.48
2019-06-10T01:57:51.860Z,20.48
2019-06-10T01:58:51.360Z,20.47
2019-06-10T01:59:50.933Z,20.51
2019-06-10T02:00:50.751Z,20.44
2019-06-10T02:01:51.755Z,20.51
2019-06-10T02:02:52.401Z,20.50
2019-06-10T02:03:51.890Z,20.43
2019-06-10T02:04:51.720Z,20.51
2019-06-10T02:05:51.675Z,20.58
2019-06-10T02:06:51.090Z,20.51
2019-06-10T02:07:51.633Z,20.51
2019-06-10T02:08:50.989Z,20.47
2019-06-10T02:09:51.804Z,20.50
2019-06-10T02:10:50.957Z,20.47
2019-06-10T02:11:51.408Z,20.52
2019-06-10T02:12:50.877Z,20.43
2019-06-10T02:13:51.522Z,20.48
2019-06-10T02:14:50.934Z,20.48
2019-06-10T02:15:51.380Z,20.58
2019-06-10T02:16:50.718Z,20.52
2019-06-10T02:17:50.989Z,20.48
2019-06-10T02:19:00.097Z,20.40
2019-06-10T02:19:51.029Z,20.44
2019-06-10T02:20:51.402Z,20.44
2019-06-10T02:21:51.083Z,20.37
2019-06-10T02:22:51.548Z,20.37
2019-06-10T02:23:51.945Z,20.50
2019-06-10T02:24:50.631Z,20.48
2019-06-10T02:25:51.280Z,20.39
2019-06-10T02:26:51.666Z,20.48
2019-06-10T02:27:50.750Z,20.47
2019-06-10T02:28:51.235Z,20.43
2019-06-10T02:29:50.738Z,20.41
2019-06-10T02:30:54.421Z,20.41
2019-06-10T02:31:52.153Z,20.41
2019-06-10T02:32:52.362Z,20.37
2019-06-10T02:33:52.394Z,20.41
2019-06-10T02:35:06.981Z,20.41
2019-06-10T02:35:53.589Z,20.39
2019-06-10T02:36:49.631Z,20.50
2019-06-10T02:37:49.616Z,20.36
2019-06-10T02:38:49.610Z,20.41
2019-06-10T02:39:49.595Z,20.40
2019-06-10T02:40:49.610Z,20.39
2019-06-10T02:41:49.578Z,20.37
2019-06-10T02:42:49.602Z,20.36
2019-06-10T02:43:49.553Z,20.36
2019-06-10T02:44:49.540Z,20.32
2019-06-10T02:45:49.555Z,20.31
2019-06-10T02:46:54.451Z,20.41
2019-06-10T02:47:49.507Z,20.29
2019-06-10T02:48:49.496Z,20.29
2019-06-10T02:50:01.543Z,20.29
2019-06-10T02:50:53.493Z,20.37
2019-06-10T02:51:49.476Z,20.29
2019-06-10T02:52:49.449Z,20.29
2019-06-10T02:53:49.444Z,20.22
2019-06-10T02:54:49.430Z,20.21
2019-06-10T02:55:49.467Z,20.16
2019-06-10T02:56:53.732Z,20.03
2019-06-10T02:57:49.396Z,19.33
2019-06-10T02:58:49.392Z,18.89
2019-06-10T02:59:49.370Z,18.62
2019-06-10T03:00:49.557Z,18.38
2019-06-10T03:01:49.363Z,18.22
2019-06-10T03:02:49.345Z,18.10
2019-06-10T03:03:49.976Z,18.04
2019-06-10T03:04:49.323Z,17.94
2019-06-10T03:05:49.334Z,17.83
2019-06-10T03:06:49.308Z,17.89
2019-06-10T03:07:49.301Z,17.79
2019-06-10T03:08:49.270Z,17.80
2019-06-10T03:09:49.259Z,17.83
2019-06-10T03:10:49.249Z,17.92
2019-06-10T03:11:49.293Z,17.90
2019-06-10T03:12:49.280Z,17.90
2019-06-10T03:13:49.216Z,17.90
2019-06-10T03:14:49.204Z,17.94
2019-06-10T03:15:49.199Z,17.97
2019-06-10T03:16:49.189Z,18.01
2019-06-10T03:17:49.170Z,17.98
2019-06-10T03:18:49.189Z,18.00
2019-06-10T03:19:50.746Z,18.04
2019-06-10T03:20:49.143Z,18.16
2019-06-10T03:21:49.150Z,18.05
2019-06-10T03:22:49.114Z,18.18
2019-06-10T03:23:49.100Z,18.18
2019-06-10T03:24:49.125Z,18.18
2019-06-10T03:25:49.078Z,18.18
2019-06-10T03:26:49.070Z,18.18
2019-06-10T03:27:49.060Z,18.08
2019-06-10T03:28:49.045Z,18.19
2019-06-10T03:29:49.037Z,18.22
2019-06-10T03:30:54.197Z,18.08
2019-06-10T03:31:54.814Z,18.15
2019-06-10T03:32:50.000Z,18.16
2019-06-10T03:33:49.004Z,18.19
2019-06-10T03:34:48.988Z,18.19
2019-06-10T03:35:48.985Z,18.13
2019-06-10T03:36:48.997Z,18.19
2019-06-10T03:37:48.962Z,18.19
2019-06-10T03:38:48.965Z,18.18
2019-06-10T03:39:49.443Z,18.22
2019-06-10T03:40:49.589Z,18.19
2019-06-10T03:41:49.325Z,18.23
2019-06-10T03:42:51.936Z,18.28
2019-06-10T03:43:49.294Z,18.34
2019-06-10T03:44:49.302Z,18.35
2019-06-10T03:45:49.276Z,18.37
2019-06-10T03:46:49.265Z,18.31
2019-06-10T03:47:48.838Z,18.33
2019-06-10T03:48:48.872Z,18.34
2019-06-10T03:49:52.499Z,18.33
2019-06-10T03:50:49.794Z,18.38
2019-06-10T03:51:48.784Z,18.35
2019-06-10T03:52:48.771Z,18.38
2019-06-10T03:53:48.796Z,18.31
2019-06-10T03:54:48.756Z,18.40
2019-06-10T03:55:48.736Z,18.29
2019-06-10T03:56:48.725Z,18.29
2019-06-10T03:57:48.733Z,18.18
2019-06-10T03:58:48.707Z,18.23
2019-06-10T03:59:48.704Z,18.18
2019-06-10T04:00:48.695Z,18.20
2019-06-10T04:01:48.670Z,18.22
2019-06-10T04:02:48.661Z,18.16
2019-06-10T04:03:48.647Z,18.18
2019-06-10T04:04:48.654Z,18.10
2019-06-10T04:05:48.624Z,18.19
2019-06-10T04:06:48.622Z,18.05
2019-06-10T04:07:48.603Z,18.00
2019-06-10T04:08:48.593Z,18.07
2019-06-10T04:09:48.595Z,18.04
2019-06-10T04:10:48.578Z,18.10
2019-06-10T04:11:48.554Z,18.13
2019-06-10T04:12:48.559Z,18.04
2019-06-10T04:13:48.532Z,18.16
2019-06-10T04:14:48.521Z,18.05
2019-06-10T04:15:48.513Z,18.22
2019-06-10T04:16:48.531Z,18.22
2019-06-10T04:17:48.488Z,18.19
2019-06-10T04:18:48.480Z,18.25
2019-06-10T04:19:48.463Z,18.25
2019-06-10T04:20:48.451Z,18.23
2019-06-10T04:21:48.441Z,18.20
2019-06-10T04:22:48.689Z,18.20
2019-06-10T04:23:48.451Z,18.20
2019-06-10T04:24:48.405Z,18.22
2019-06-10T04:25:48.396Z,18.22
2019-06-10T04:26:48.392Z,18.22
2019-06-10T04:27:48.374Z,18.23
2019-06-10T04:28:48.361Z,18.19
2019-06-10T04:29:48.389Z,18.20
2019-06-10T04:30:48.337Z,18.20
2019-06-10T04:31:48.329Z,18.10
2019-06-10T04:32:48.317Z,17.94
2019-06-10T04:33:48.320Z,17.80
2019-06-10T04:34:48.294Z,17.80
2019-06-10T04:35:48.297Z,17.71
2019-06-10T04:36:48.272Z,17.82
2019-06-10T04:37:48.266Z,17.79
2019-06-10T04:38:48.248Z,17.78
2019-06-10T04:39:48.245Z,17.78
2019-06-10T04:40:48.255Z,17.79
2019-06-10T04:41:48.217Z,17.79
2019-06-10T04:42:48.203Z,17.87
2019-06-10T04:43:48.197Z,17.78
2019-06-10T04:44:48.181Z,17.82
2019-06-10T04:45:48.169Z,17.85
2019-06-10T04:46:48.255Z,17.83
2019-06-10T04:47:48.147Z,17.83
2019-06-10T04:48:48.134Z,17.76
2019-06-10T04:49:48.137Z,17.65
2019-06-10T04:50:48.117Z,17.68
2019-06-10T04:51:48.106Z,17.78
2019-06-10T04:52:48.917Z,17.76
2019-06-10T04:53:48.080Z,17.70
2019-06-10T04:54:48.077Z,17.83
2019-06-10T04:55:48.081Z,17.76
2019-06-10T04:56:48.049Z,17.86
2019-06-10T04:57:48.047Z,17.90
2019-06-10T04:58:48.025Z,17.85
2019-06-10T04:59:48.033Z,17.83
2019-06-10T05:00:47.997Z,17.85
2019-06-10T05:01:47.987Z,17.82
2019-06-10T05:02:47.974Z,17.79
2019-06-10T05:03:47.981Z,17.74
2019-06-10T05:04:47.971Z,17.65
2019-06-10T05:05:47.942Z,17.68
2019-06-10T05:06:47.939Z,17.70
2019-06-10T05:07:47.932Z,17.56
2019-06-10T05:08:47.920Z,17.54
2019-06-10T05:09:47.895Z,17.49
2019-06-10T05:10:47.885Z,17.68
2019-06-10T05:11:47.876Z,17.52
2019-06-10T05:12:47.867Z,17.54
2019-06-10T05:13:48.156Z,17.52
2019-06-10T05:14:47.839Z,17.65
2019-06-10T05:15:47.826Z,17.49
2019-06-10T05:16:47.815Z,17.64
2019-06-10T05:17:47.817Z,17.63
2019-06-10T05:18:47.810Z,17.63
2019-06-10T05:19:47.783Z,17.59
2019-06-10T05:20:56.042Z,17.59
2019-06-10T05:21:48.759Z,17.65
2019-06-10T05:22:47.766Z,17.67
2019-06-10T05:23:47.751Z,17.67
2019-06-10T05:24:47.740Z,17.80
2019-06-10T05:25:47.717Z,17.89
2019-06-10T05:26:47.720Z,17.90
2019-06-10T05:27:47.697Z,18.03
2019-06-10T05:28:47.693Z,18.01
2019-06-10T05:29:47.673Z,18.19
2019-06-10T05:30:47.659Z,18.22
2019-06-10T05:31:47.650Z,18.33
2019-06-10T05:32:47.633Z,18.38
2019-06-10T05:33:47.672Z,18.49
2019-06-10T05:34:47.619Z,18.47
2019-06-10T05:35:47.620Z,18.65
2019-06-10T05:36:47.592Z,18.70
2019-06-10T05:37:47.583Z,18.68
2019-06-10T05:38:47.584Z,18.80
2019-06-10T05:39:47.596Z,18.96
2019-06-10T05:40:47.564Z,19.09
2019-06-10T05:41:50.145Z,18.99
2019-06-10T05:42:47.529Z,19.09
2019-06-10T05:43:47.523Z,19.12
2019-06-10T05:44:47.547Z,19.31
2019-06-10T05:45:47.542Z,19.34
2019-06-10T05:46:47.508Z,19.55
2019-06-10T05:47:47.474Z,19.56
2019-06-10T05:48:47.464Z,19.70
2019-06-10T05:49:47.465Z,19.88
2019-06-10T05:51:00.130Z,19.92
2019-06-10T05:51:48.466Z,19.91
2019-06-10T05:52:47.433Z,20.09
2019-06-10T05:53:47.421Z,20.18
2019-06-10T05:54:47.437Z,20.31
2019-06-10T05:55:47.414Z,20.37
2019-06-10T05:56:47.577Z,20.51
2019-06-10T05:57:47.443Z,20.58
2019-06-10T05:58:47.383Z,20.65
2019-06-10T05:59:47.355Z,20.51
2019-06-10T06:00:47.347Z,20.58
2019-06-10T06:01:47.332Z,20.40
2019-06-10T06:02:47.319Z,20.44
2019-06-10T06:03:47.313Z,20.37
2019-06-10T06:04:47.277Z,20.36
2019-06-10T06:05:47.278Z,20.13
2019-06-10T06:06:47.284Z,20.00
2019-06-10T06:08:01.326Z,20.09
2019-06-10T06:08:48.283Z,20.06
2019-06-10T06:09:47.251Z,19.88
2019-06-10T06:10:47.236Z,19.84
2019-06-10T06:11:47.225Z,19.94
2019-06-10T06:12:47.215Z,20.10
2019-06-10T06:13:47.180Z,20.10
2019-06-10T06:14:47.189Z,20.13
2019-06-10T06:15:47.172Z,20.21
2019-06-10T06:16:47.154Z,20.07
2019-06-10T06:17:47.147Z,19.99
2019-06-10T06:18:47.135Z,19.88
2019-06-10T06:19:47.450Z,19.85
2019-06-10T06:20:47.125Z,20.03
2019-06-10T06:21:47.873Z,20.06
2019-06-10T06:22:47.088Z,20.19
2019-06-10T06:23:47.087Z,20.29
2019-06-10T06:24:47.100Z,20.29
2019-06-10T06:25:47.218Z,20.41
2019-06-10T06:26:47.057Z,20.50
2019-06-10T06:27:47.042Z,20.72
2019-06-10T06:28:47.019Z,20.82
2019-06-10T06:29:47.016Z,20.81
2019-06-10T06:30:47.003Z,21.06
2019-06-10T06:31:47.008Z,21.36
2019-06-10T06:32:46.990Z,21.72
2019-06-10T06:33:46.970Z,22.06
2019-06-10T06:34:47.009Z,22.32
2019-06-10T06:35:46.951Z,22.50
2019-06-10T06:36:46.938Z,22.62
2019-06-10T06:37:46.927Z,22.84
2019-06-10T06:38:46.920Z,22.99
2019-06-10T06:39:46.906Z,22.96
2019-06-10T06:40:46.912Z,23.06
2019-06-10T06:41:46.980Z,23.31
2019-06-10T06:42:46.880Z,23.47
2019-06-10T06:43:46.854Z,23.69
2019-06-10T06:44:46.848Z,23.91
2019-06-10T06:45:46.838Z,24.03
2019-06-10T06:46:46.819Z,23.87
2019-06-10T06:47:46.912Z,23.68
2019-06-10T06:48:46.845Z,23.58
2019-06-10T06:49:46.791Z,23.36
2019-06-10T06:51:02.073Z,23.10
2019-06-10T06:51:55.200Z,22.94
2019-06-10T06:53:18.773Z,22.80
2019-06-10T06:53:51.990Z,22.66
2019-06-10T06:54:47.766Z,22.59
2019-06-10T06:55:46.727Z,22.44
2019-06-10T06:56:46.715Z,22.51
2019-06-10T06:57:46.732Z,22.41
2019-06-10T06:58:46.696Z,22.36
2019-06-10T06:59:46.698Z,22.36
2019-06-10T07:01:00.549Z,22.15
2019-06-10T07:01:47.654Z,22.22
2019-06-10T07:02:46.644Z,22.28
2019-06-10T07:03:46.639Z,22.36
2019-06-10T07:04:46.638Z,22.26
2019-06-10T07:05:46.618Z,22.23
2019-06-10T07:06:46.608Z,22.28
2019-06-10T07:07:46.591Z,22.45
2019-06-10T07:09:00.365Z,22.38
2019-06-10T07:09:47.583Z,22.76
2019-06-10T07:10:46.567Z,23.41
2019-06-10T07:11:46.685Z,23.41
2019-06-10T07:12:46.536Z,23.87
2019-06-10T07:13:46.572Z,24.11
2019-06-10T07:14:46.513Z,23.95
2019-06-10T07:15:47.434Z,23.65
2019-06-10T07:16:46.852Z,23.55
2019-06-10T07:17:46.504Z,23.43
2019-06-10T07:18:50.209Z,23.36
2019-06-10T07:19:47.581Z,23.62
2019-06-10T07:20:46.507Z,24.69
2019-06-10T07:22:05.406Z,25.44
2019-06-10T07:22:47.425Z,26.00
2019-06-10T07:23:47.108Z,25.53
2019-06-10T07:24:47.701Z,25.10
2019-06-10T07:25:47.581Z,24.70
2019-06-10T07:26:52.143Z,24.42
2019-06-10T07:27:47.379Z,24.10
2019-06-10T07:28:47.495Z,23.86
2019-06-10T07:29:47.318Z,23.74
2019-06-10T07:30:51.490Z,23.68
2019-06-10T07:31:50.276Z,23.51
2019-06-10T07:32:47.572Z,23.39
2019-06-10T07:33:47.383Z,23.23
2019-06-10T07:34:47.051Z,23.46
2019-06-10T07:35:46.298Z,23.44
2019-06-10T07:36:46.270Z,23.44
2019-06-10T07:37:46.276Z,23.41
2019-06-10T07:38:49.075Z,23.39
2019-06-10T07:39:46.243Z,23.55
2019-06-10T07:40:46.232Z,23.80
2019-06-10T07:41:47.882Z,24.01
2019-06-10T07:42:46.223Z,24.08
2019-06-10T07:43:49.407Z,24.11
2019-06-10T07:44:46.177Z,24.13
2019-06-10T07:45:48.053Z,24.02
2019-06-10T07:46:46.184Z,24.11
2019-06-10T07:47:46.436Z,24.08
2019-06-10T07:48:48.108Z,24.18
2019-06-10T07:49:46.133Z,24.28
2019-06-10T07:50:46.118Z,24.40
2019-06-10T07:51:46.650Z,24.33
2019-06-10T07:52:46.809Z,24.39
2019-06-10T07:53:46.853Z,24.35
2019-06-10T07:54:46.107Z,24.42
2019-06-10T07:55:46.581Z,24.54
2019-06-10T07:56:50.320Z,24.61
2019-06-10T07:57:47.051Z,24.81
2019-06-10T07:58:47.670Z,24.86
2019-06-10T07:59:46.190Z,24.81
2019-06-10T08:00:48.319Z,24.86
2019-06-10T08:01:51.515Z,24.81
2019-06-10T08:02:47.008Z,24.73
2019-06-10T08:03:46.663Z,24.53
2019-06-10T08:04:46.167Z,24.60
2019-06-10T08:05:46.620Z,24.69
2019-06-10T08:06:45.968Z,24.69
2019-06-10T08:07:47.550Z,24.51
2019-06-10T08:08:47.209Z,24.53
2019-06-10T08:09:47.427Z,24.69
2019-06-10T08:10:46.947Z,24.80
2019-06-10T08:11:48.277Z,24.91
2019-06-10T08:12:46.957Z,24.96
2019-06-10T08:13:46.476Z,25.17
2019-06-10T08:14:45.892Z,25.68
2019-06-10T08:15:46.291Z,26.31
2019-06-10T08:16:46.790Z,26.92
2019-06-10T08:17:45.836Z,27.47
2019-06-10T08:19:12.246Z,27.54
2019-06-10T08:19:50.531Z,27.65
2019-06-10T08:20:45.803Z,27.98
2019-06-10T08:21:48.970Z,28.39
2019-06-10T08:22:52.575Z,28.94
2019-06-10T08:23:48.305Z,29.82
2019-06-10T08:24:45.757Z,30.57
2019-06-10T08:25:52.998Z,31.34
2019-06-10T08:26:47.757Z,31.47
2019-06-10T08:27:53.054Z,30.77
2019-06-10T08:28:46.710Z,30.25
2019-06-10T08:29:48.037Z,29.75
2019-06-10T08:30:46.135Z,29.47
2019-06-10T08:31:49.487Z,28.93
2019-06-10T08:32:47.130Z,28.54
2019-06-10T08:33:47.383Z,28.39
2019-06-10T08:34:47.758Z,28.04
2019-06-10T08:35:52.144Z,27.92
2019-06-10T08:36:50.415Z,27.64
2019-06-10T08:37:46.305Z,27.63
2019-06-10T08:38:48.626Z,27.39
2019-06-10T08:39:47.351Z,27.11
2019-06-10T08:40:48.352Z,27.00
2019-06-10T08:41:47.761Z,26.88
2019-06-10T08:42:47.324Z,26.66
2019-06-10T08:43:48.395Z,26.28
2019-06-10T08:44:47.227Z,26.38
2019-06-10T08:45:47.181Z,26.28
2019-06-10T08:46:46.857Z,26.26
2019-06-10T08:47:47.273Z,26.16
2019-06-10T08:48:47.755Z,26.29
2019-06-10T08:49:46.242Z,26.16
2019-06-10T08:50:48.719Z,26.09
2019-06-10T08:51:48.852Z,26.16
2019-06-10T08:53:03.308Z,26.31
2019-06-10T08:53:49.444Z,26.45
2019-06-10T08:54:47.947Z,26.47
2019-06-10T08:55:47.834Z,26.55
2019-06-10T08:56:48.960Z,26.38
2019-06-10T08:57:50.493Z,26.43
2019-06-10T08:58:49.014Z,26.70
2019-06-10T08:59:47.658Z,26.84
2019-06-10T09:00:49.031Z,26.84
2019-06-10T09:01:46.847Z,26.85
2019-06-10T09:02:49.899Z,26.73
2019-06-10T09:03:49.001Z,26.74
2019-06-10T09:04:48.802Z,26.74
2019-06-10T09:05:47.912Z,26.41
2019-06-10T09:06:48.811Z,26.47
2019-06-10T09:07:49.612Z,26.89
2019-06-10T09:08:49.576Z,27.65
2019-06-10T09:09:49.145Z,28.19
2019-06-10T09:10:47.934Z,28.64
2019-06-10T09:11:47.906Z,28.82
2019-06-10T09:12:49.676Z,29.05
2019-06-10T09:13:48.047Z,28.98
2019-06-10T09:14:46.828Z,28.84
2019-06-10T09:16:00.581Z,28.89
2019-06-10T09:16:48.907Z,28.91
2019-06-10T09:17:49.349Z,29.05
2019-06-10T09:18:49.011Z,29.20
2019-06-10T09:19:47.494Z,29.17
2019-06-10T09:20:49.063Z,29.20
2019-06-10T09:21:51.042Z,29.20
2019-06-10T09:22:50.168Z,28.94
2019-06-10T09:23:49.542Z,28.74
2019-06-10T09:24:49.398Z,28.54
2019-06-10T09:25:50.483Z,28.51
2019-06-10T09:26:48.636Z,28.72
2019-06-10T09:27:48.518Z,28.76
2019-06-10T09:28:48.941Z,29.27
2019-06-10T09:29:50.658Z,29.36
2019-06-10T09:30:50.446Z,29.63
2019-06-10T09:31:49.641Z,29.69
2019-06-10T09:32:49.943Z,30.24
2019-06-10T09:33:50.253Z,30.69
2019-06-10T09:34:49.703Z,31.03
2019-06-10T09:35:48.999Z,31.18
2019-06-10T09:36:49.152Z,30.85
2019-06-10T09:37:49.312Z,30.55
2019-06-10T09:38:48.725Z,30.39
2019-06-10T09:39:50.911Z,30.44
2019-06-10T09:40:51.446Z,30.70
2019-06-10T09:41:55.372Z,30.83
2019-06-10T09:42:49.131Z,30.99
2019-06-10T09:43:50.027Z,31.17
2019-06-10T09:44:48.668Z,31.25
2019-06-10T09:45:47.524Z,31.46
2019-06-10T09:46:47.812Z,31.70
2019-06-10T09:47:48.499Z,31.65
2019-06-10T09:48:49.643Z,31.87
2019-06-10T09:49:48.817Z,31.84
2019-06-10T09:50:50.465Z,31.93
2019-06-10T09:51:49.798Z,32.45
2019-06-10T09:52:50.984Z,32.78
2019-06-10T09:53:52.458Z,32.95
2019-06-10T09:54:50.049Z,32.89
2019-06-10T09:55:49.110Z,32.71
2019-06-10T09:56:47.238Z,33.19
2019-06-10T09:57:46.956Z,33.83
2019-06-10T09:58:47.774Z,34.02
2019-06-10T09:59:47.748Z,33.68
2019-06-10T10:00:49.403Z,33.77
2019-06-10T10:01:50.266Z,33.86
2019-06-10T10:02:48.773Z,33.77
2019-06-10T10:03:51.400Z,33.47
2019-06-10T10:04:50.512Z,32.92
2019-06-10T10:05:59.295Z,32.36
2019-06-10T10:06:48.935Z,31.46
2019-06-10T10:07:48.337Z,30.48
2019-06-10T10:08:49.805Z,30.10
2019-06-10T10:09:48.265Z,29.98
2019-06-10T10:10:49.428Z,30.12
2019-06-10T10:11:47.650Z,30.37
2019-06-10T10:12:47.399Z,30.51
2019-06-10T10:13:47.040Z,30.61
2019-06-10T10:14:48.003Z,30.69
2019-06-10T10:15:45.658Z,30.63
2019-06-10T10:16:49.324Z,30.37
2019-06-10T10:17:48.281Z,30.13
2019-06-10T10:18:47.320Z,30.28
2019-06-10T10:19:46.825Z,30.47
2019-06-10T10:20:46.836Z,30.88
2019-06-10T10:21:47.716Z,32.77
2019-06-10T10:22:47.053Z,33.37
2019-06-10T10:23:59.835Z,32.86
2019-06-10T10:24:46.224Z,32.30
2019-06-10T10:25:46.558Z,31.90
2019-06-10T10:26:48.227Z,33.76
2019-06-10T10:27:48.345Z,36.33
2019-06-10T10:28:48.081Z,37.67
2019-06-10T10:29:46.896Z,38.40
2019-06-10T10:30:46.056Z,38.73
2019-06-10T10:31:47.391Z,38.50
2019-06-10T10:32:47.612Z,37.53
2019-06-10T10:33:44.406Z,36.62
2019-06-10T10:34:47.033Z,35.48
2019-06-10T10:35:46.011Z,34.06
2019-06-10T10:36:46.446Z,32.95
2019-06-10T10:37:44.608Z,32.22
2019-06-10T10:38:44.786Z,31.87
2019-06-10T10:39:45.156Z,31.27
2019-06-10T10:40:47.466Z,30.57
2019-06-10T10:41:47.109Z,30.28
2019-06-10T10:42:48.550Z,30.02
2019-06-10T10:43:47.361Z,29.65
2019-06-10T10:44:46.677Z,29.59
2019-06-10T10:45:47.456Z,29.59
2019-06-10T10:46:45.490Z,29.82
2019-06-10T10:47:44.988Z,30.12
2019-06-10T10:48:45.019Z,30.34
2019-06-10T10:49:45.011Z,30.55
2019-06-10T10:50:45.607Z,30.73
2019-06-10T10:51:44.900Z,30.73
2019-06-10T10:52:46.124Z,30.80
2019-06-10T10:53:48.345Z,30.62
2019-06-10T10:54:45.057Z,30.51
2019-06-10T10:55:45.256Z,30.51
2019-06-10T10:56:46.201Z,30.83
2019-06-10T10:57:45.158Z,31.10
2019-06-10T10:58:46.991Z,31.21
2019-06-10T10:59:45.077Z,31.12
2019-06-10T11:00:46.778Z,31.31
2019-06-10T11:01:45.341Z,31.47
2019-06-10T11:02:44.861Z,31.85
2019-06-10T11:03:46.123Z,32.08
2019-06-10T11:04:44.741Z,31.44
2019-06-10T11:05:47.638Z,30.84
2019-06-10T11:06:44.901Z,30.78
2019-06-10T11:07:44.468Z,30.62
2019-06-10T11:08:45.309Z,30.59
2019-06-10T11:09:44.802Z,30.61
2019-06-10T11:10:47.462Z,30.73
2019-06-10T11:11:45.673Z,30.81
2019-06-10T11:12:44.967Z,30.84
2019-06-10T11:13:45.319Z,30.85
2019-06-10T11:14:44.875Z,30.90
2019-06-10T11:15:45.679Z,30.88
2019-06-10T11:16:45.243Z,30.43
2019-06-10T11:17:45.042Z,30.23
2019-06-10T11:18:45.112Z,30.09
2019-06-10T11:19:45.155Z,29.81
2019-06-10T11:20:45.198Z,29.44
2019-06-10T11:21:45.219Z,29.04
2019-06-10T11:22:43.850Z,28.82
2019-06-10T11:23:43.918Z,28.62
2019-06-10T11:24:44.924Z,28.44
2019-06-10T11:25:43.810Z,28.49
2019-06-10T11:26:43.819Z,28.45
2019-06-10T11:27:43.786Z,28.51
2019-06-10T11:28:43.779Z,28.76
2019-06-10T11:29:43.751Z,28.75
2019-06-10T11:30:43.758Z,28.84
2019-06-10T11:31:43.753Z,29.10
2019-06-10T11:32:43.799Z,29.23
2019-06-10T11:33:43.846Z,29.32
2019-06-10T11:34:43.717Z,29.50
2019-06-10T11:35:43.685Z,29.68
2019-06-10T11:36:43.695Z,29.98
2019-06-10T11:37:43.704Z,30.24
2019-06-10T11:38:43.700Z,30.54
2019-06-10T11:39:43.647Z,30.81
2019-06-10T11:40:43.634Z,31.07
2019-06-10T11:41:43.811Z,31.09
2019-06-10T11:42:43.768Z,31.27
2019-06-10T11:43:43.644Z,31.51
2019-06-10T11:44:43.641Z,31.89
2019-06-10T11:45:48.272Z,32.01
2019-06-10T11:46:44.666Z,31.78
2019-06-10T11:47:43.570Z,31.64
2019-06-10T11:48:44.440Z,31.81
2019-06-10T11:49:43.714Z,31.96
2019-06-10T11:50:43.541Z,32.09
2019-06-10T11:51:43.528Z,31.81
2019-06-10T11:52:43.524Z,31.66
2019-06-10T11:53:44.162Z,31.52
2019-06-10T11:54:55.539Z,31.47
2019-06-10T11:55:44.562Z,31.36
2019-06-10T11:56:43.469Z,31.15
2019-06-10T11:57:43.459Z,31.06
2019-06-10T11:58:43.651Z,31.03
2019-06-10T11:59:44.205Z,30.84
2019-06-10T12:00:43.443Z,30.62
2019-06-10T12:01:43.453Z,30.73
2019-06-10T12:02:43.403Z,30.81
2019-06-10T12:03:43.478Z,30.97
2019-06-10T12:04:43.387Z,31.00
2019-06-10T12:05:43.392Z,31.29
2019-06-10T12:06:43.397Z,31.39
2019-06-10T12:07:43.618Z,31.39
2019-06-10T12:08:43.830Z,31.47
2019-06-10T12:09:43.343Z,31.59
2019-06-10T12:10:43.522Z,31.89
2019-06-10T12:11:43.961Z,32.07
2019-06-10T12:12:43.497Z,32.04
2019-06-10T12:13:43.284Z,32.09
2019-06-10T12:14:43.339Z,31.94
2019-06-10T12:16:20.720Z,31.81
2019-06-10T12:17:17.436Z,31.70
2019-06-10T12:17:50.898Z,31.58
2019-06-10T12:18:44.264Z,31.37
2019-06-10T12:19:43.465Z,31.51
2019-06-10T12:20:43.203Z,31.28
2019-06-10T12:21:43.593Z,31.28
2019-06-10T12:22:43.201Z,31.24
2019-06-10T12:23:43.712Z,31.28
2019-06-10T12:24:43.460Z,31.21
2019-06-10T12:25:44.176Z,31.15
2019-06-10T12:26:43.601Z,31.17
2019-06-10T12:27:43.444Z,31.06
2019-06-10T12:28:43.436Z,31.22
2019-06-10T12:29:43.124Z,31.27
2019-06-10T12:30:43.104Z,31.37
2019-06-10T12:31:43.101Z,31.39
2019-06-10T12:32:43.080Z,31.18
2019-06-10T12:33:43.086Z,30.90
2019-06-10T12:34:46.159Z,30.59
2019-06-10T12:35:43.051Z,30.44
2019-06-10T12:36:43.046Z,30.40
2019-06-10T12:37:43.046Z,30.37
2019-06-10T12:38:43.612Z,30.24
2019-06-10T12:39:43.021Z,30.03
2019-06-10T12:40:43.003Z,30.00
2019-06-10T12:41:43.197Z,30.05
2019-06-10T12:42:42.978Z,30.19
2019-06-10T12:43:43.462Z,30.24
2019-06-10T12:44:43.041Z,30.24
2019-06-10T12:45:43.847Z,30.21
2019-06-10T12:46:43.364Z,30.19
2019-06-10T12:47:42.914Z,30.25
2019-06-10T12:48:43.033Z,30.37
2019-06-10T12:49:42.911Z,30.31
2019-06-10T12:50:43.031Z,30.21
2019-06-10T12:51:42.871Z,30.27
2019-06-10T12:52:42.956Z,30.39